MUHG/HOG METAR and TAF weather

Enter ICAO airport designator
Station Type Date Time Source
MUHG METAR 2018/12/11 19:50 UTC NOAA

MUHG 111950Z 03012KT 9000 BKN020 26/21 Q1018


Station Type Date Time Source
MUHG Decoded METAR 2018/12/11 19:50 UTC NOAA

Holguin Civ / Mil , Cuba (MUHG) 20-47N 076-19W
Dec 11, 2018 - 02:50 PM EST / 2018.12.11 1950 UTC
Wind: from the NNE (030 degrees) at 14 MPH (12 KT):0
Visibility: 5 mile(s):0
Sky conditions: mostly cloudy
Temperature: 78 F (26 C)
Dew Point: 69 F (21 C)
Relative Humidity: 73%
Pressure (altimeter): 30.06 in. Hg (1018 hPa)
ob: MUHG 111950Z 03012KT 9000 BKN020 26/21 Q1018
cycle: 20

Station Type Date Time Source
MUHG TAF 2018/12/11 18:03 UTC NOAA

TAF MUHG 111700Z 1118/1218 36010KT 9000 BKN020
TEMPO 1118/1124 5000 RA
BECMG 1203/1205 VRB03KT
BECMG 1213/1215 06010KT


Example: see airport list